| time (UTC) | temp F | wind direction | speed MPH | gust MPH | rain 1hr in | rain 24hr in | rain mn in | humidity % | barometer mb |
| 20260507115315 | 46 | 291 | 6.0 | 8.0 | 0.00 | 0.21 | 0.02 | 84 | 1014.3 |
| 20260507114328 | 46 | 5 | 0.0 | 4.0 | 0.00 | 0.21 | 0.02 | 84 | 1014.4 |
| 20260507113321 | 46 | 169 | 2.0 | 8.0 | 0.00 | 0.21 | 0.02 | 81 | 1014.4 |
| 20260507112333 | 46 | 188 | 5.0 | 10.0 | 0.00 | 0.21 | 0.02 | 79 | 1014.5 |
| 20260507111326 | 46 | 236 | 3.0 | 10.0 | 0.00 | 0.21 | 0.02 | 83 | 1014.4 |
| 20260507105320 | 46 | 245 | 3.0 | 5.0 | 0.00 | 0.24 | 0.02 | 83 | 1014.6 |
| 20260507104313 | 46 | 38 | 0.0 | 4.0 | 0.00 | 0.24 | 0.02 | 83 | 1014.5 |
| 20260507102322 | 46 | 32 | 0.0 | 4.0 | 0.00 | 0.24 | 0.02 | 82 | 1014.6 |
| 20260507100319 | 47 | 31 | 3.0 | 9.0 | 0.00 | 0.26 | 0.02 | 81 | 1014.6 |
| 20260507095314 | 47 | 217 | 5.0 | 7.0 | 0.00 | 0.26 | 0.02 | 80 | 1014.6 |
| 20260507094326 | 48 | 282 | 1.0 | 9.0 | 0.00 | 0.26 | 0.02 | 80 | 1014.5 |
| 20260507090330 | 47 | 191 | 1.0 | 5.0 | 0.00 | 0.29 | 0.02 | 82 | 1014.4 |
| 20260507085324 | 47 | 15 | 2.0 | 5.0 | 0.00 | 0.29 | 0.02 | 82 | 1014.2 |
| 20260507083316 | 48 | 355 | 1.0 | 3.0 | 0.00 | 0.29 | 0.02 | 79 | 1014.2 |
| 20260507082315 | 47 | 44 | 2.0 | 5.0 | 0.00 | 0.29 | 0.02 | 81 | 1014.0 |
| 20260507081331 | 46 | 228 | 1.0 | 12.0 | 0.00 | 0.29 | 0.02 | 81 | 1014.1 |
| 20260507075317 | 44 | 180 | 6.0 | 11.0 | 0.00 | 0.32 | 0.02 | 83 | 1013.8 |
| 20260507074332 | 43 | 192 | 8.0 | 10.0 | 0.00 | 0.32 | 0.02 | 84 | 1013.8 |
| 20260507072326 | 43 | 201 | 2.0 | 10.0 | 0.00 | 0.32 | 0.02 | 85 | 1013.6 |
| 20260507065328 | 43 | 154 | 6.0 | 10.0 | 0.00 | 0.35 | 0.02 | 86 | 1013.4 |
| 20260507063319 | 42 | 189 | 4.0 | 10.0 | 0.00 | 0.35 | 0.02 | 85 | 1013.2 |
| 20260507061332 | 42 | 177 | 4.0 | 8.0 | 0.00 | 0.35 | 0.02 | 85 | 1013.0 |
| 20260507060327 | 42 | 184 | 4.0 | 11.0 | 0.00 | 0.38 | 0.02 | 85 | 1013.1 |
| 20260507055318 | 41 | 184 | 4.0 | 9.0 | 0.00 | 0.38 | 0.02 | 86 | 1012.9 |
| 20260507053313 | 40 | 200 | 6.0 | 9.0 | 0.00 | 0.38 | 0.02 | 86 | 1012.8 |
| 20260507052326 | 41 | 197 | 7.0 | 10.0 | 0.00 | 0.38 | 0.02 | 86 | 1012.6 |
| 20260507051319 | 41 | 181 | 9.0 | 14.0 | 0.00 | 0.38 | 0.02 | 84 | 1012.5 |
| 20260507043321 | 40 | 198 | 10.0 | 14.0 | 0.00 | 0.41 | 0.02 | 86 | 1011.9 |
| 20260507042316 | 40 | 191 | 11.0 | 15.0 | 0.00 | 0.41 | 0.02 | 87 | 1011.8 |
| 20260507041329 | 40 | 202 | 12.0 | 14.0 | 0.00 | 0.41 | 0.02 | 87 | 1011.8 |
| 20260507035320 | 39 | 205 | 12.0 | 15.0 | 0.00 | 0.45 | 0.02 | 87 | 1011.7 |
| 20260507034318 | 39 | 207 | 11.0 | 15.0 | 0.00 | 0.45 | 0.02 | 87 | 1011.6 |
| 20260507033333 | 39 | 197 | 9.0 | 14.0 | 0.00 | 0.45 | 0.02 | 87 | 1011.7 |
| 20260507032325 | 40 | 217 | 11.0 | 17.0 | 0.00 | 0.45 | 0.02 | 86 | 1011.6 |
| 20260507031319 | 40 | 211 | 12.0 | 16.0 | 0.00 | 0.45 | 0.02 | 86 | 1011.5 |
| 20260507030314 | 40 | 211 | 12.0 | 16.0 | 0.01 | 0.48 | 0.02 | 85 | 1011.6 |
| 20260507023324 | 40 | 197 | 11.0 | 21.0 | 0.01 | 0.48 | 0.02 | 86 | 1011.4 |
| 20260507022316 | 40 | 193 | 14.0 | 19.0 | 0.01 | 0.48 | 0.02 | 86 | 1011.4 |
| 20260507015326 | 40 | 209 | 13.0 | 20.0 | 0.00 | 0.49 | 0.01 | 87 | 1011.2 |
| 20260507013314 | 40 | 190 | 13.0 | 19.0 | 0.00 | 0.49 | 0.01 | 86 | 1011.3 |
| 20260507010317 | 40 | 207 | 12.0 | 18.0 | 0.00 | 0.49 | 0.01 | 86 | 1011.2 |
| 20260507005315 | 40 | 209 | 13.0 | 15.0 | 0.00 | 0.49 | 0.01 | 86 | 1011.3 |
| 20260507004327 | 40 | 238 | 11.0 | 14.0 | 0.00 | 0.49 | 0.01 | 86 | 1011.5 |
| 20260507002318 | 41 | 230 | 10.0 | 14.0 | 0.01 | 0.49 | 0.01 | 85 | 1011.4 |
| 20260507001332 | 41 | 230 | 11.0 | 16.0 | 0.01 | 0.49 | 0.01 | 85 | 1011.3 |
| 20260506235326 | 41 | 217 | 14.0 | 20.0 | 0.01 | 0.49 | 0.01 | 85 | 1011.0 |
| 20260506225319 | 41 | 188 | 15.0 | 29.0 | 0.00 | 0.48 | 0.00 | 85 | 1010.6 |
| 20260506224314 | 41 | 215 | 21.0 | 27.0 | 0.01 | 0.48 | 0.00 | 84 | 1010.3 |
| 20260506221322 | 41 | 201 | 20.0 | 31.0 | 0.01 | 0.48 | 0.00 | 84 | 1010.3 |
| 20260506220319 | 41 | 192 | 22.0 | 33.0 | 0.01 | 0.48 | 0.00 | 83 | 1010.3 |
| 20260506215332 | 41 | 188 | 23.0 | 31.0 | 0.01 | 0.48 | 0.48 | 82 | 1010.4 |
| 20260506214328 | 41 | 185 | 23.0 | 35.0 | 0.00 | 0.47 | 0.47 | 80 | 1010.4 |
| 20260506205323 | 42 | 198 | 25.0 | 35.0 | 0.01 | 0.47 | 0.47 | 76 | 1010.2 |
| 20260506202318 | 42 | 170 | 18.0 | 33.0 | 0.01 | 0.47 | 0.47 | 79 | 1010.3 |
| 20260506201327 | 42 | 173 | 18.0 | 25.0 | 0.01 | 0.46 | 0.46 | 80 | 1010.4 |
| 20260506200328 | 41 | 178 | 7.0 | 19.0 | 0.01 | 0.47 | 0.46 | 81 | 1010.7 |
| 20260506195328 | 41 | 151 | 8.0 | 14.0 | 0.01 | 0.47 | 0.46 | 81 | 1010.5 |
| 20260506193321 | 41 | 93 | 5.0 | 10.0 | 0.01 | 0.47 | 0.46 | 81 | 1010.4 |
| 20260506191314 | 41 | 157 | 11.0 | 24.0 | 0.01 | 0.46 | 0.45 | 82 | 1009.8 |
| 20260506190327 | 41 | 200 | 21.0 | 28.0 | 0.01 | 0.46 | 0.45 | 82 | 1009.2 |
| 20260506184322 | 41 | 205 | 15.0 | 23.0 | 0.01 | 0.46 | 0.45 | 84 | 1009.3 |
| 20260506183315 | 41 | 147 | 14.0 | 22.0 | 0.01 | 0.46 | 0.45 | 83 | 1009.4 |
| 20260506181326 | 42 | 209 | 20.0 | 28.0 | 0.01 | 0.45 | 0.44 | 81 | 1008.6 |
| 20260506180323 | 42 | 196 | 21.0 | 35.0 | 0.01 | 0.45 | 0.44 | 80 | 1008.3 |
| 20260506175318 | 42 | 195 | 29.0 | 38.0 | 0.01 | 0.45 | 0.44 | 80 | 1007.9 |
| 20260506174313 | 43 | 214 | 26.0 | 35.0 | 0.01 | 0.45 | 0.44 | 79 | 1007.9 |
| 20260506173327 | 43 | 212 | 23.0 | 36.0 | 0.02 | 0.45 | 0.44 | 80 | 1007.8 |
| 20260506172320 | 43 | 196 | 24.0 | 40.0 | 0.01 | 0.44 | 0.43 | 79 | 1007.7 |
| 20260506171319 | 43 | 197 | 26.0 | 36.0 | 0.01 | 0.44 | 0.43 | 79 | 1007.4 |
| 20260506164324 | 44 | 207 | 19.0 | 33.0 | 0.02 | 0.44 | 0.43 | 80 | 1007.6 |
| 20260506163318 | 45 | 213 | 22.0 | 36.0 | 0.01 | 0.43 | 0.42 | 78 | 1007.5 |
| 20260506162317 | 45 | 189 | 23.0 | 34.0 | 0.01 | 0.43 | 0.42 | 79 | 1007.5 |
| 20260506161331 | 45 | 199 | 19.0 | 31.0 | 0.02 | 0.43 | 0.42 | 78 | 1007.6 |
| 20260506160325 | 46 | 169 | 20.0 | 33.0 | 0.02 | 0.43 | 0.42 | 75 | 1007.6 |
| 20260506155317 | 46 | 235 | 24.0 | 32.0 | 0.01 | 0.42 | 0.41 | 75 | 1007.4 |
| 20260506154331 | 47 | 198 | 18.0 | 29.0 | 0.02 | 0.42 | 0.41 | 73 | 1007.6 |
| 20260506153328 | 47 | 198 | 18.0 | 29.0 | 0.02 | 0.42 | 0.41 | 72 | 1007.8 |
| 20260506152320 | 48 | 220 | 18.0 | 29.0 | 0.02 | 0.42 | 0.41 | 73 | 1007.9 |
| 20260506151313 | 48 | 196 | 24.0 | 35.0 | 0.02 | 0.41 | 0.40 | 65 | 1007.5 |
| 20260506141315 | 48 | 224 | 13.0 | 22.0 | 0.02 | 0.40 | 0.38 | 74 | 1008.3 |
| 20260506140328 | 48 | 211 | 18.0 | 28.0 | 0.03 | 0.40 | 0.38 | 75 | 1008.0 |
| 20260506135322 | 48 | 196 | 16.0 | 25.0 | 0.02 | 0.39 | 0.37 | 73 | 1008.2 |
| 20260506134321 | 48 | 178 | 15.0 | 25.0 | 0.03 | 0.39 | 0.37 | 73 | 1008.4 |
| 20260506133315 | 48 | 227 | 13.0 | 28.0 | 0.04 | 0.39 | 0.37 | 74 | 1008.5 |
| 20260506131326 | 48 | 226 | 17.0 | 31.0 | 0.04 | 0.38 | 0.36 | 77 | 1008.5 |
| 20260506130319 | 49 | 211 | 12.0 | 28.0 | 0.03 | 0.37 | 0.35 | 78 | 1008.7 |
| 20260506121318 | 48 | 211 | 20.0 | 29.0 | 0.03 | 0.34 | 0.32 | 76 | 1008.1 |
| 20260506120312 | 48 | 212 | 18.0 | 33.0 | 0.04 | 0.35 | 0.32 | 80 | 1008.4 |